createdAt,value
2018-12-05T04:29:00.094Z,56.30
2018-12-05T04:31:49.662Z,56.00
2018-12-05T04:34:38.407Z,56.30
2018-12-05T04:37:28.228Z,56.30
2018-12-05T04:40:17.807Z,56.20
2018-12-05T04:43:06.835Z,56.20
2018-12-05T04:45:55.636Z,56.20
2018-12-05T04:48:44.165Z,56.30
2018-12-05T04:51:32.755Z,56.50
2018-12-05T04:54:21.381Z,56.50
2018-12-05T04:57:09.783Z,56.50
2018-12-05T04:59:58.220Z,56.40
2018-12-05T05:02:46.749Z,56.30
2018-12-05T05:05:34.959Z,56.10
2018-12-05T05:08:23.520Z,56.20
2018-12-05T05:11:20.069Z,56.30
2018-12-05T05:14:13.286Z,56.20
2018-12-05T05:17:06.849Z,56.20
2018-12-05T05:20:03.100Z,56.10
2018-12-05T05:26:04.915Z,55.90
2018-12-05T05:28:59.597Z,55.90
2018-12-05T05:31:55.626Z,56.00
2018-12-05T05:34:50.270Z,56.00
2018-12-05T05:40:49.440Z,56.00
2018-12-05T05:43:44.146Z,56.00
2018-12-05T05:46:43.473Z,56.00
2018-12-05T05:49:38.048Z,56.00
2018-12-05T05:52:34.204Z,56.20
2018-12-05T05:55:35.969Z,56.40
2018-12-05T05:58:30.497Z,56.40
2018-12-05T06:01:25.956Z,56.50
2018-12-05T06:04:20.841Z,56.50
2018-12-05T06:07:15.773Z,56.60
2018-12-05T06:10:10.128Z,56.70
2018-12-05T06:13:03.970Z,56.80
2018-12-05T06:16:06.997Z,56.80
2018-12-05T06:18:59.657Z,56.70
2018-12-05T06:21:54.174Z,56.70
2018-12-05T06:24:50.735Z,56.80
2018-12-05T06:27:44.674Z,56.70
2018-12-05T06:30:43.060Z,56.80
2018-12-05T06:33:37.918Z,56.80
2018-12-05T06:36:38.929Z,56.80
2018-12-05T06:39:30.400Z,56.70
2018-12-05T06:42:22.009Z,56.80
2018-12-05T06:45:11.826Z,56.90
2018-12-05T06:48:02.450Z,57.00
2018-12-05T06:50:58.713Z,57.10
2018-12-05T06:53:54.938Z,57.20
2018-12-05T06:56:45.972Z,57.10
2018-12-05T06:59:36.378Z,56.90
2018-12-05T07:02:28.326Z,56.90
2018-12-05T07:05:17.203Z,57.00
2018-12-05T07:08:06.180Z,57.10
2018-12-05T07:10:58.038Z,57.20
2018-12-05T07:13:48.253Z,57.20
2018-12-05T07:16:37.669Z,57.20
2018-12-05T07:19:26.671Z,57.40
2018-12-05T07:22:16.106Z,57.40
2018-12-05T07:25:06.592Z,57.40
2018-12-05T07:27:55.623Z,57.50
2018-12-05T07:30:45.398Z,57.50
2018-12-05T07:33:39.791Z,57.50
2018-12-05T07:36:34.914Z,57.60
2018-12-05T07:39:30.043Z,57.60
2018-12-05T07:42:30.279Z,57.70
2018-12-05T07:45:31.944Z,57.70
2018-12-05T07:48:28.952Z,57.80
2018-12-05T07:51:25.180Z,57.90
2018-12-05T07:54:23.856Z,57.90
2018-12-05T07:57:23.285Z,57.90
2018-12-05T08:00:23.536Z,57.90
2018-12-05T08:03:24.127Z,57.80
2018-12-05T08:06:20.695Z,57.80
2018-12-05T08:09:14.794Z,57.70
2018-12-05T08:12:16.042Z,57.70
2018-12-05T08:15:09.801Z,57.70
2018-12-05T08:18:02.936Z,57.70
2018-12-05T08:20:54.619Z,57.40
2018-12-05T08:23:50.893Z,58.10
2018-12-05T08:26:43.412Z,57.90
2018-12-05T08:29:38.548Z,57.80
2018-12-05T08:32:34.542Z,57.80
2018-12-05T08:35:31.757Z,57.70
2018-12-05T08:38:30.826Z,57.90
2018-12-05T08:41:24.354Z,57.90
2018-12-05T08:44:12.888Z,58.10
2018-12-05T08:47:01.811Z,58.20
2018-12-05T08:49:51.000Z,58.30
2018-12-05T08:52:39.989Z,58.30
2018-12-05T08:55:28.448Z,58.30
2018-12-05T08:58:17.343Z,58.30
2018-12-05T09:01:05.968Z,58.40
2018-12-05T09:03:54.669Z,58.40
2018-12-05T09:06:49.680Z,58.40
2018-12-05T09:09:45.736Z,58.40
2018-12-05T09:12:41.042Z,58.50
2018-12-05T09:15:40.600Z,58.50
2018-12-05T09:18:32.906Z,58.40
2018-12-05T09:21:29.132Z,58.40
2018-12-05T09:24:27.391Z,58.40
2018-12-05T09:27:23.490Z,58.30
2018-12-05T09:30:16.791Z,58.10
2018-12-05T09:33:14.633Z,58.60
2018-12-05T09:36:14.710Z,58.60
2018-12-05T09:39:18.494Z,58.90
2018-12-05T09:42:13.431Z,59.10
2018-12-05T09:45:08.217Z,59.20
2018-12-05T09:48:02.353Z,59.40
2018-12-05T09:50:59.438Z,59.50
2018-12-05T09:53:58.704Z,59.70
2018-12-05T09:56:56.869Z,60.00
2018-12-05T09:59:52.423Z,60.00
2018-12-05T10:02:51.787Z,60.00
2018-12-05T10:05:46.874Z,60.40
2018-12-05T10:08:42.705Z,60.30
2018-12-05T10:11:37.606Z,60.60
2018-12-05T10:14:32.110Z,60.80
2018-12-05T10:17:26.943Z,60.60
2018-12-05T10:20:21.804Z,60.60
2018-12-05T10:23:18.589Z,61.60
2018-12-05T10:26:14.517Z,60.70
2018-12-05T10:29:16.419Z,60.60
2018-12-05T10:32:09.465Z,60.50
2018-12-05T10:35:05.050Z,60.50
2018-12-05T10:37:59.070Z,60.40
2018-12-05T10:40:53.432Z,60.10
2018-12-05T10:43:48.398Z,60.20
2018-12-05T10:46:45.231Z,60.10
2018-12-05T10:49:37.320Z,60.10
2018-12-05T10:52:30.110Z,60.20
2018-12-05T10:55:24.437Z,60.20
2018-12-05T10:58:19.512Z,60.20
2018-12-05T11:01:15.540Z,60.20
2018-12-05T11:04:11.467Z,60.30
2018-12-05T11:07:06.140Z,60.30
2018-12-05T11:10:07.508Z,60.30
2018-12-05T11:13:09.949Z,60.30
2018-12-05T11:16:18.049Z,60.30
2018-12-05T11:19:18.552Z,60.20
2018-12-05T11:22:16.037Z,60.20
2018-12-05T11:25:09.790Z,60.20
2018-12-05T11:27:59.489Z,60.30
2018-12-05T11:30:49.773Z,60.20
2018-12-05T11:33:38.303Z,60.30
2018-12-05T11:36:30.979Z,60.20
2018-12-05T11:39:20.073Z,60.30
2018-12-05T11:42:11.906Z,60.30
2018-12-05T11:45:05.388Z,60.70
2018-12-05T11:47:55.447Z,60.50
2018-12-05T11:50:43.960Z,59.70
2018-12-05T11:53:33.803Z,60.60
2018-12-05T11:56:25.155Z,60.60
2018-12-05T11:59:14.046Z,60.60
2018-12-05T12:05:15.866Z,60.50
2018-12-05T12:08:04.989Z,60.70
2018-12-05T12:10:52.956Z,60.60
2018-12-05T12:13:41.504Z,60.60
2018-12-05T12:16:29.941Z,60.70
2018-12-05T12:19:18.324Z,60.00
2018-12-05T12:22:06.883Z,59.60
2018-12-05T12:24:57.022Z,59.70
2018-12-05T12:27:45.170Z,60.30
2018-12-05T12:30:36.938Z,59.60
2018-12-05T12:33:25.204Z,59.80
2018-12-05T12:36:13.577Z,59.80
2018-12-05T12:39:01.877Z,59.90
2018-12-05T12:41:53.502Z,60.00
2018-12-05T12:44:41.917Z,60.00
2018-12-05T12:47:30.323Z,60.20
2018-12-05T12:50:18.838Z,60.20
2018-12-05T12:53:08.490Z,60.20
2018-12-05T12:55:57.647Z,60.10
2018-12-05T12:58:48.293Z,60.00
2018-12-05T13:01:36.571Z,60.00
2018-12-05T13:04:25.834Z,60.00
2018-12-05T13:07:14.015Z,60.00
2018-12-05T13:10:03.086Z,60.00
2018-12-05T13:12:54.194Z,60.00
2018-12-05T13:15:42.976Z,60.20
2018-12-05T13:18:31.998Z,60.00
2018-12-05T13:21:20.147Z,59.60
2018-12-05T13:24:08.807Z,59.80
2018-12-05T13:26:57.548Z,59.80
2018-12-05T13:29:47.675Z,59.70
2018-12-05T13:32:35.429Z,59.80
2018-12-05T13:35:24.990Z,59.80
2018-12-05T13:38:13.603Z,59.80
2018-12-05T13:41:02.669Z,60.00
2018-12-05T13:43:51.020Z,59.50
2018-12-05T13:46:38.672Z,60.00
2018-12-05T13:49:26.755Z,60.10
2018-12-05T13:52:16.847Z,60.00
2018-12-05T13:55:04.922Z,59.80
2018-12-05T13:57:53.905Z,59.70
2018-12-05T14:00:42.365Z,59.80
2018-12-05T14:03:32.478Z,59.80
2018-12-05T14:06:21.342Z,59.80
2018-12-05T14:09:10.472Z,59.80
2018-12-05T14:11:58.322Z,59.80
2018-12-05T14:14:46.129Z,59.80
2018-12-05T14:17:34.158Z,59.30
2018-12-05T14:20:22.255Z,60.00
2018-12-05T14:23:11.169Z,60.00
2018-12-05T14:25:59.921Z,60.10
2018-12-05T14:28:47.702Z,60.00
2018-12-05T14:31:36.039Z,60.00
2018-12-05T14:34:24.569Z,60.10
2018-12-05T14:37:12.724Z,60.20
2018-12-05T14:40:00.945Z,60.10
2018-12-05T14:42:50.746Z,60.00
2018-12-05T14:45:39.657Z,60.00
2018-12-05T14:48:27.919Z,60.20
2018-12-05T14:51:15.772Z,60.20
2018-12-05T14:54:04.447Z,60.20
2018-12-05T14:56:53.265Z,60.30
2018-12-05T14:59:41.843Z,60.30
2018-12-05T15:02:30.124Z,60.40
2018-12-05T15:05:17.773Z,60.40
2018-12-05T15:08:05.981Z,60.40
2018-12-05T15:10:54.418Z,60.30
2018-12-05T15:13:43.684Z,60.30
2018-12-05T15:16:32.101Z,60.40
2018-12-05T15:19:20.721Z,60.30
2018-12-05T15:22:09.314Z,60.50
2018-12-05T15:24:57.686Z,60.50
2018-12-05T15:27:46.937Z,60.40
2018-12-05T15:30:35.781Z,60.30
2018-12-05T15:33:24.597Z,60.50
2018-12-05T15:36:12.724Z,60.40
2018-12-05T15:39:01.555Z,60.50
2018-12-05T15:41:50.330Z,60.40
2018-12-05T15:44:38.244Z,60.30
2018-12-05T15:47:26.962Z,60.40
2018-12-05T15:50:18.079Z,60.40
2018-12-05T15:53:06.487Z,60.40
2018-12-05T15:55:56.973Z,60.60
2018-12-05T15:58:46.676Z,60.50
2018-12-05T16:01:35.401Z,60.60
2018-12-05T16:04:24.291Z,60.70
2018-12-05T16:07:12.469Z,60.80
2018-12-05T16:10:01.104Z,60.60
2018-12-05T16:12:49.488Z,64.80
2018-12-05T16:15:38.785Z,60.50
2018-12-05T16:18:27.627Z,60.60
2018-12-05T16:21:16.052Z,60.40
2018-12-05T16:24:04.737Z,60.40
2018-12-05T16:26:52.969Z,60.40
2018-12-05T16:29:40.880Z,60.30
2018-12-05T16:32:30.044Z,60.30
2018-12-05T16:35:18.247Z,60.30
2018-12-05T16:40:59.773Z,60.30
2018-12-05T16:43:49.630Z,60.30
2018-12-05T16:46:39.069Z,60.40
2018-12-05T16:49:28.414Z,60.30
2018-12-05T16:52:16.593Z,60.30
2018-12-05T16:55:05.370Z,60.40
2018-12-05T16:57:54.272Z,60.30
2018-12-05T17:00:43.056Z,60.30
2018-12-05T17:03:31.898Z,60.30
2018-12-05T17:06:21.358Z,59.70
2018-12-05T17:09:11.750Z,60.30
2018-12-05T17:11:59.709Z,60.30
2018-12-05T17:14:47.926Z,60.30
2018-12-05T17:17:36.792Z,60.30
2018-12-05T17:20:24.678Z,60.40
2018-12-05T17:23:12.801Z,60.50
2018-12-05T17:26:00.548Z,60.50
2018-12-05T17:28:48.155Z,60.60
2018-12-05T17:31:36.333Z,60.60
2018-12-05T17:34:24.585Z,60.70
2018-12-05T17:37:12.213Z,60.60
2018-12-05T17:40:00.112Z,60.70
2018-12-05T17:42:48.190Z,60.50
2018-12-05T17:45:36.147Z,60.60
2018-12-05T17:48:24.890Z,60.70
2018-12-05T17:51:14.363Z,60.80
2018-12-05T17:54:03.542Z,60.80
2018-12-05T17:56:51.932Z,60.90
2018-12-05T17:59:39.804Z,60.80
2018-12-05T18:02:27.924Z,60.90
2018-12-05T18:05:15.906Z,60.90
2018-12-05T18:08:03.585Z,60.80
2018-12-05T18:10:51.430Z,60.80
2018-12-05T18:13:39.163Z,60.70
2018-12-05T18:16:27.791Z,60.80
2018-12-05T18:19:16.494Z,60.80
2018-12-05T18:22:04.292Z,60.80
2018-12-05T18:24:52.567Z,60.80
2018-12-05T18:27:41.787Z,60.80
2018-12-05T18:30:29.368Z,60.80
2018-12-05T18:33:17.914Z,60.90
2018-12-05T18:36:06.334Z,61.10
2018-12-05T18:38:54.143Z,61.10
2018-12-05T18:41:42.647Z,61.00
2018-12-05T18:44:32.355Z,60.90
2018-12-05T18:47:20.268Z,60.80
2018-12-05T18:50:08.940Z,60.80
2018-12-05T18:52:57.205Z,60.70
2018-12-05T18:55:45.302Z,60.70
2018-12-05T18:58:32.946Z,60.70
2018-12-05T19:01:20.900Z,60.70
2018-12-05T19:04:09.878Z,60.60
2018-12-05T19:06:58.272Z,60.60
2018-12-05T19:09:45.964Z,60.50
2018-12-05T19:12:33.982Z,60.60
2018-12-05T19:15:22.152Z,60.60
2018-12-05T19:18:09.957Z,60.60
2018-12-05T19:20:58.513Z,60.60
2018-12-05T19:23:47.265Z,60.70
2018-12-05T19:26:35.071Z,61.10
2018-12-05T19:29:23.601Z,60.70
2018-12-05T19:32:12.180Z,60.60
2018-12-05T19:35:00.032Z,60.50
2018-12-05T19:37:47.591Z,60.50
2018-12-05T19:40:35.679Z,60.60
2018-12-05T19:43:23.877Z,60.20
2018-12-05T19:46:12.104Z,60.70
2018-12-05T19:48:59.842Z,60.60
2018-12-05T19:51:48.167Z,60.60
2018-12-05T19:54:35.683Z,60.50
2018-12-05T19:57:25.436Z,60.50
2018-12-05T20:00:15.306Z,60.40
2018-12-05T20:03:04.394Z,60.40
2018-12-05T20:05:52.717Z,60.50
2018-12-05T20:08:41.631Z,60.40
2018-12-05T20:11:30.072Z,60.50
2018-12-05T20:14:22.324Z,60.40
2018-12-05T20:17:10.955Z,60.30
2018-12-05T20:20:00.277Z,60.20
2018-12-05T20:22:47.907Z,60.40
2018-12-05T20:25:40.081Z,60.40
2018-12-05T20:28:27.621Z,60.40
2018-12-05T20:31:15.827Z,60.40
2018-12-05T20:34:03.949Z,60.50
2018-12-05T20:36:53.439Z,60.50
2018-12-05T20:40:30.654Z,60.30
2018-12-05T20:43:21.072Z,60.30
2018-12-05T20:46:09.968Z,60.30
2018-12-05T20:48:57.768Z,60.30
2018-12-05T20:51:45.676Z,60.30
2018-12-05T20:54:33.541Z,60.30
2018-12-05T20:57:21.882Z,60.30
2018-12-05T21:00:10.570Z,60.20
2018-12-05T21:02:59.072Z,60.20
2018-12-05T21:05:47.103Z,60.20
2018-12-05T21:08:35.772Z,60.10
2018-12-05T21:11:24.180Z,60.00
2018-12-05T21:14:12.108Z,60.00
2018-12-05T21:17:01.226Z,60.00
2018-12-05T21:19:50.481Z,60.00
2018-12-05T21:22:38.611Z,60.00
2018-12-05T21:25:27.329Z,60.00
2018-12-05T21:28:14.712Z,60.00
2018-12-05T21:31:02.366Z,59.60
2018-12-05T21:33:51.767Z,60.00
2018-12-05T21:36:39.374Z,59.90
2018-12-05T21:39:27.701Z,59.90
2018-12-05T21:42:15.644Z,60.00
2018-12-05T21:45:03.308Z,59.90
2018-12-05T21:47:51.457Z,59.90
2018-12-05T21:50:39.374Z,59.80
2018-12-05T21:53:27.533Z,59.80
2018-12-05T21:56:17.504Z,59.90
2018-12-05T21:59:06.065Z,59.80
2018-12-05T22:01:53.946Z,59.70
2018-12-05T22:04:41.575Z,59.90
2018-12-05T22:07:29.533Z,59.80
2018-12-05T22:10:17.879Z,59.90
2018-12-05T22:13:05.623Z,59.90
2018-12-05T22:15:53.917Z,59.90
2018-12-05T22:18:42.389Z,59.80
2018-12-05T22:21:30.857Z,59.80
2018-12-05T22:24:19.491Z,59.80
2018-12-05T22:27:07.331Z,59.70
2018-12-05T22:29:54.986Z,59.80
2018-12-05T22:32:43.168Z,59.70
2018-12-05T22:35:31.616Z,59.80
2018-12-05T22:38:19.111Z,59.70
2018-12-05T22:41:07.120Z,59.70
2018-12-05T22:43:55.333Z,59.80
2018-12-05T22:46:43.173Z,59.90
2018-12-05T22:49:31.057Z,59.90
2018-12-05T22:52:19.276Z,59.80
2018-12-05T22:55:07.953Z,59.80
2018-12-05T22:57:56.995Z,59.70
2018-12-05T23:00:47.445Z,59.70
2018-12-05T23:03:36.419Z,59.80
2018-12-05T23:06:24.513Z,59.70
2018-12-05T23:09:12.350Z,59.70
2018-12-05T23:12:00.183Z,59.70
2018-12-05T23:14:48.241Z,59.60
2018-12-05T23:17:36.218Z,59.50
2018-12-05T23:20:23.750Z,59.60
2018-12-05T23:23:11.869Z,59.60
2018-12-05T23:25:59.544Z,59.60
2018-12-05T23:28:47.548Z,59.60
2018-12-05T23:31:35.572Z,59.60
2018-12-05T23:34:24.887Z,59.50
2018-12-05T23:37:13.559Z,59.60
2018-12-05T23:40:01.980Z,59.60
2018-12-05T23:42:51.166Z,59.50
2018-12-05T23:45:39.590Z,59.60
2018-12-05T23:48:28.083Z,59.70
2018-12-05T23:51:16.167Z,59.70
2018-12-05T23:54:04.240Z,59.70
2018-12-05T23:56:52.086Z,59.60
2018-12-05T23:59:41.110Z,59.50
